sensor_id;sensor_type;location;lat;lon;timestamp;temperature;humidity
12870;DHT22;6503;48.572;13.460;2023-01-31T00:01:46;3.20;99.90
12870;DHT22;6503;48.572;13.460;2023-01-31T00:04:14;3.10;99.90
12870;DHT22;6503;48.572;13.460;2023-01-31T00:06:43;3.10;99.90
12870;DHT22;6503;48.572;13.460;2023-01-31T00:09:22;3.10;99.90
12870;DHT22;6503;48.572;13.460;2023-01-31T00:11:56;3.10;99.90
12870;DHT22;6503;48.572;13.460;2023-01-31T00:14:23;3.20;99.90
12870;DHT22;6503;48.572;13.460;2023-01-31T00:16:53;3.20;99.90
12870;DHT22;6503;48.572;13.460;2023-01-31T00:19:36;3.20;99.90
12870;DHT22;6503;48.572;13.460;2023-01-31T00:22:04;3.20;99.90
12870;DHT22;6503;48.572;13.460;2023-01-31T00:24:32;3.20;99.90
12870;DHT22;6503;48.572;13.460;2023-01-31T00:27:03;3.20;99.90
12870;DHT22;6503;48.572;13.460;2023-01-31T00:29:34;3.30;99.90
12870;DHT22;6503;48.572;13.460;2023-01-31T00:32:04;3.20;99.90
12870;DHT22;6503;48.572;13.460;2023-01-31T00:34:37;3.30;99.90
12870;DHT22;6503;48.572;13.460;2023-01-31T00:37:06;3.20;99.90
12870;DHT22;6503;48.572;13.460;2023-01-31T00:39:34;3.30;99.90
12870;DHT22;6503;48.572;13.460;2023-01-31T00:42:03;3.30;99.90
12870;DHT22;6503;48.572;13.460;2023-01-31T00:44:44;3.30;99.90
12870;DHT22;6503;48.572;13.460;2023-01-31T00:47:25;3.30;99.90
12870;DHT22;6503;48.572;13.460;2023-01-31T00:49:52;3.30;99.90
12870;DHT22;6503;48.572;13.460;2023-01-31T00:52:19;3.30;99.90
12870;DHT22;6503;48.572;13.460;2023-01-31T00:54:47;3.30;99.90
12870;DHT22;6503;48.572;13.460;2023-01-31T00:57:16;3.30;99.90
12870;DHT22;6503;48.572;13.460;2023-01-31T00:59:43;3.30;99.90
12870;DHT22;6503;48.572;13.460;2023-01-31T01:02:11;3.30;99.90
12870;DHT22;6503;48.572;13.460;2023-01-31T01:04:39;3.20;99.90
12870;DHT22;6503;48.572;13.460;2023-01-31T01:07:06;3.30;99.90
12870;DHT22;6503;48.572;13.460;2023-01-31T01:09:33;3.20;99.90
12870;DHT22;6503;48.572;13.460;2023-01-31T01:12:00;3.20;99.90
12870;DHT22;6503;48.572;13.460;2023-01-31T01:14:32;3.20;99.90
12870;DHT22;6503;48.572;13.460;2023-01-31T01:17:04;3.20;99.90
12870;DHT22;6503;48.572;13.460;2023-01-31T01:19:34;3.20;99.90
12870;DHT22;6503;48.572;13.460;2023-01-31T01:22:02;3.20;99.90
12870;DHT22;6503;48.572;13.460;2023-01-31T01:24:30;3.10;99.90
12870;DHT22;6503;48.572;13.460;2023-01-31T01:27:02;3.10;99.90
12870;DHT22;6503;48.572;13.460;2023-01-31T01:29:32;3.00;99.90
12870;DHT22;6503;48.572;13.460;2023-01-31T01:31:59;3.00;99.90
12870;DHT22;6503;48.572;13.460;2023-01-31T01:34:40;3.00;99.90
12870;DHT22;6503;48.572;13.460;2023-01-31T01:37:09;3.00;99.90
12870;DHT22;6503;48.572;13.460;2023-01-31T01:39:45;3.00;99.90
12870;DHT22;6503;48.572;13.460;2023-01-31T01:42:14;3.10;99.90
12870;DHT22;6503;48.572;13.460;2023-01-31T01:44:51;3.00;99.90
12870;DHT22;6503;48.572;13.460;2023-01-31T01:47:36;3.10;99.90
12870;DHT22;6503;48.572;13.460;2023-01-31T01:50:10;3.00;99.90
12870;DHT22;6503;48.572;13.460;2023-01-31T01:52:45;3.00;99.90
12870;DHT22;6503;48.572;13.460;2023-01-31T01:55:30;3.10;99.90
12870;DHT22;6503;48.572;13.460;2023-01-31T01:58:08;3.10;99.90
12870;DHT22;6503;48.572;13.460;2023-01-31T02:00:39;3.20;99.90
12870;DHT22;6503;48.572;13.460;2023-01-31T02:03:19;3.10;99.90
12870;DHT22;6503;48.572;13.460;2023-01-31T02:05:53;3.20;99.90
12870;DHT22;6503;48.572;13.460;2023-01-31T02:08:27;3.20;99.90
12870;DHT22;6503;48.572;13.460;2023-01-31T02:10:59;3.20;99.90
12870;DHT22;6503;48.572;13.460;2023-01-31T02:13:34;3.10;99.90
12870;DHT22;6503;48.572;13.460;2023-01-31T02:16:07;3.30;99.90
12870;DHT22;6503;48.572;13.460;2023-01-31T02:18:38;3.20;99.90
12870;DHT22;6503;48.572;13.460;2023-01-31T02:24:30;3.30;99.90
12870;DHT22;6503;48.572;13.460;2023-01-31T02:27:33;3.30;99.90
12870;DHT22;6503;48.572;13.460;2023-01-31T02:30:29;3.30;99.90
12870;DHT22;6503;48.572;13.460;2023-01-31T02:33:12;3.30;99.90
12870;DHT22;6503;48.572;13.460;2023-01-31T02:35:55;3.30;99.90
12870;DHT22;6503;48.572;13.460;2023-01-31T02:41:19;3.30;99.90
12870;DHT22;6503;48.572;13.460;2023-01-31T02:43:55;3.30;99.90
12870;DHT22;6503;48.572;13.460;2023-01-31T02:46:44;3.30;99.90
12870;DHT22;6503;48.572;13.460;2023-01-31T02:49:31;3.30;99.90
12870;DHT22;6503;48.572;13.460;2023-01-31T02:52:12;3.30;99.90
12870;DHT22;6503;48.572;13.460;2023-01-31T02:54:46;3.40;99.90
12870;DHT22;6503;48.572;13.460;2023-01-31T02:57:33;3.30;99.90
12870;DHT22;6503;48.572;13.460;2023-01-31T03:00:01;3.40;99.90
12870;DHT22;6503;48.572;13.460;2023-01-31T03:02:29;3.30;99.90
12870;DHT22;6503;48.572;13.460;2023-01-31T03:04:58;3.40;99.90
12870;DHT22;6503;48.572;13.460;2023-01-31T03:07:26;3.40;99.90
12870;DHT22;6503;48.572;13.460;2023-01-31T03:10:02;3.40;99.90
12870;DHT22;6503;48.572;13.460;2023-01-31T03:12:48;3.40;99.90
12870;DHT22;6503;48.572;13.460;2023-01-31T03:15:27;3.40;99.90
12870;DHT22;6503;48.572;13.460;2023-01-31T03:18:19;3.40;99.90
12870;DHT22;6503;48.572;13.460;2023-01-31T03:20:55;3.40;99.90
12870;DHT22;6503;48.572;13.460;2023-01-31T03:23:27;3.40;99.90
12870;DHT22;6503;48.572;13.460;2023-01-31T03:25:57;3.40;99.90
12870;DHT22;6503;48.572;13.460;2023-01-31T03:28:28;3.40;99.90
12870;DHT22;6503;48.572;13.460;2023-01-31T03:31:04;3.40;99.90
12870;DHT22;6503;48.572;13.460;2023-01-31T03:33:36;3.40;99.90
12870;DHT22;6503;48.572;13.460;2023-01-31T03:36:16;3.40;99.90
12870;DHT22;6503;48.572;13.460;2023-01-31T03:38:50;3.40;99.90
12870;DHT22;6503;48.572;13.460;2023-01-31T03:41:23;3.40;99.90
12870;DHT22;6503;48.572;13.460;2023-01-31T03:43:58;3.40;99.90
12870;DHT22;6503;48.572;13.460;2023-01-31T03:46:32;3.40;99.90
12870;DHT22;6503;48.572;13.460;2023-01-31T03:49:03;3.40;99.90
12870;DHT22;6503;48.572;13.460;2023-01-31T03:51:37;3.40;99.90
12870;DHT22;6503;48.572;13.460;2023-01-31T03:54:08;3.40;99.90
12870;DHT22;6503;48.572;13.460;2023-01-31T03:56:41;3.40;99.90
12870;DHT22;6503;48.572;13.460;2023-01-31T03:59:15;3.40;99.90
12870;DHT22;6503;48.572;13.460;2023-01-31T04:01:46;3.40;99.90
12870;DHT22;6503;48.572;13.460;2023-01-31T04:04:17;3.40;99.90
12870;DHT22;6503;48.572;13.460;2023-01-31T04:06:48;3.40;99.90
12870;DHT22;6503;48.572;13.460;2023-01-31T04:09:16;3.40;99.90
12870;DHT22;6503;48.572;13.460;2023-01-31T04:11:49;3.40;99.90
12870;DHT22;6503;48.572;13.460;2023-01-31T04:14:16;3.40;99.90
12870;DHT22;6503;48.572;13.460;2023-01-31T04:16:44;3.40;99.90
12870;DHT22;6503;48.572;13.460;2023-01-31T04:19:11;3.40;99.90
12870;DHT22;6503;48.572;13.460;2023-01-31T04:21:38;3.40;99.90
12870;DHT22;6503;48.572;13.460;2023-01-31T04:24:08;3.30;99.90
12870;DHT22;6503;48.572;13.460;2023-01-31T04:26:36;3.40;99.90
12870;DHT22;6503;48.572;13.460;2023-01-31T04:29:07;3.30;99.90
12870;DHT22;6503;48.572;13.460;2023-01-31T04:31:35;3.40;99.90
12870;DHT22;6503;48.572;13.460;2023-01-31T04:34:04;3.40;99.90
12870;DHT22;6503;48.572;13.460;2023-01-31T04:36:31;3.40;99.90
12870;DHT22;6503;48.572;13.460;2023-01-31T04:38:59;3.40;99.90
12870;DHT22;6503;48.572;13.460;2023-01-31T04:41:30;3.40;99.90
12870;DHT22;6503;48.572;13.460;2023-01-31T04:43:57;3.40;99.90
12870;DHT22;6503;48.572;13.460;2023-01-31T04:46:29;3.30;99.90
12870;DHT22;6503;48.572;13.460;2023-01-31T04:49:02;3.40;99.90
12870;DHT22;6503;48.572;13.460;2023-01-31T04:51:35;3.30;99.90
12870;DHT22;6503;48.572;13.460;2023-01-31T04:54:05;3.30;99.90
12870;DHT22;6503;48.572;13.460;2023-01-31T04:56:45;3.30;99.90
12870;DHT22;6503;48.572;13.460;2023-01-31T04:59:21;3.40;99.90
12870;DHT22;6503;48.572;13.460;2023-01-31T05:01:52;3.40;99.90
12870;DHT22;6503;48.572;13.460;2023-01-31T05:04:24;3.40;99.90
12870;DHT22;6503;48.572;13.460;2023-01-31T05:06:59;3.40;99.90
12870;DHT22;6503;48.572;13.460;2023-01-31T05:09:34;3.30;99.90
12870;DHT22;6503;48.572;13.460;2023-01-31T05:12:05;3.40;99.90
12870;DHT22;6503;48.572;13.460;2023-01-31T05:14:35;3.40;99.90
12870;DHT22;6503;48.572;13.460;2023-01-31T05:17:08;3.30;99.90
12870;DHT22;6503;48.572;13.460;2023-01-31T05:19:36;3.30;99.90
12870;DHT22;6503;48.572;13.460;2023-01-31T05:22:06;3.40;99.90
12870;DHT22;6503;48.572;13.460;2023-01-31T05:24:37;3.30;99.90
12870;DHT22;6503;48.572;13.460;2023-01-31T05:27:10;3.30;99.90
12870;DHT22;6503;48.572;13.460;2023-01-31T05:29:51;3.30;99.90
12870;DHT22;6503;48.572;13.460;2023-01-31T05:32:25;3.30;99.90
12870;DHT22;6503;48.572;13.460;2023-01-31T05:34:52;3.30;99.90
12870;DHT22;6503;48.572;13.460;2023-01-31T05:37:26;3.30;99.90
12870;DHT22;6503;48.572;13.460;2023-01-31T05:40:09;3.30;99.90
12870;DHT22;6503;48.572;13.460;2023-01-31T05:42:42;3.30;99.90
12870;DHT22;6503;48.572;13.460;2023-01-31T05:45:17;3.30;99.90
12870;DHT22;6503;48.572;13.460;2023-01-31T05:47:53;3.30;99.90
12870;DHT22;6503;48.572;13.460;2023-01-31T05:50:22;3.30;99.90
12870;DHT22;6503;48.572;13.460;2023-01-31T05:52:56;3.30;99.90
12870;DHT22;6503;48.572;13.460;2023-01-31T05:55:29;3.30;99.90
12870;DHT22;6503;48.572;13.460;2023-01-31T05:58:13;3.30;99.90
12870;DHT22;6503;48.572;13.460;2023-01-31T06:00:55;3.20;99.90
12870;DHT22;6503;48.572;13.460;2023-01-31T06:03:27;3.20;99.90
12870;DHT22;6503;48.572;13.460;2023-01-31T06:06:01;3.30;99.90
12870;DHT22;6503;48.572;13.460;2023-01-31T06:08:29;3.30;99.90
12870;DHT22;6503;48.572;13.460;2023-01-31T06:11:10;3.30;99.90
12870;DHT22;6503;48.572;13.460;2023-01-31T06:14:09;3.30;99.90
12870;DHT22;6503;48.572;13.460;2023-01-31T06:16:39;3.30;99.90
12870;DHT22;6503;48.572;13.460;2023-01-31T06:19:12;3.30;99.90
12870;DHT22;6503;48.572;13.460;2023-01-31T06:21:59;3.30;99.90
12870;DHT22;6503;48.572;13.460;2023-01-31T06:24:34;3.30;99.90
12870;DHT22;6503;48.572;13.460;2023-01-31T06:27:40;3.30;99.90
12870;DHT22;6503;48.572;13.460;2023-01-31T06:30:15;3.30;99.90
12870;DHT22;6503;48.572;13.460;2023-01-31T06:32:43;3.30;99.90
12870;DHT22;6503;48.572;13.460;2023-01-31T06:35:45;3.30;99.90
12870;DHT22;6503;48.572;13.460;2023-01-31T06:38:27;3.30;99.90
12870;DHT22;6503;48.572;13.460;2023-01-31T06:44:23;3.40;99.90
12870;DHT22;6503;48.572;13.460;2023-01-31T06:56:27;3.40;99.90
12870;DHT22;6503;48.572;13.460;2023-01-31T06:58:57;3.40;99.90
12870;DHT22;6503;48.572;13.460;2023-01-31T07:01:31;3.40;99.90
12870;DHT22;6503;48.572;13.460;2023-01-31T07:04:03;3.50;99.90
12870;DHT22;6503;48.572;13.460;2023-01-31T07:06:46;3.30;99.90
12870;DHT22;6503;48.572;13.460;2023-01-31T07:09:43;3.40;99.90
12870;DHT22;6503;48.572;13.460;2023-01-31T07:16:09;3.40;99.90
12870;DHT22;6503;48.572;13.460;2023-01-31T07:19:12;3.40;99.90
12870;DHT22;6503;48.572;13.460;2023-01-31T07:21:49;3.50;99.90
12870;DHT22;6503;48.572;13.460;2023-01-31T07:25:12;3.40;99.90
12870;DHT22;6503;48.572;13.460;2023-01-31T07:27:53;3.40;99.90
12870;DHT22;6503;48.572;13.460;2023-01-31T07:30:25;3.40;99.90
12870;DHT22;6503;48.572;13.460;2023-01-31T07:32:56;3.40;99.90
12870;DHT22;6503;48.572;13.460;2023-01-31T07:35:23;3.70;99.90
12870;DHT22;6503;48.572;13.460;2023-01-31T07:37:54;3.50;99.90
12870;DHT22;6503;48.572;13.460;2023-01-31T07:40:22;3.50;99.90
12870;DHT22;6503;48.572;13.460;2023-01-31T07:42:49;3.80;99.90
12870;DHT22;6503;48.572;13.460;2023-01-31T07:45:19;3.40;99.90
12870;DHT22;6503;48.572;13.460;2023-01-31T07:47:48;3.70;99.90
12870;DHT22;6503;48.572;13.460;2023-01-31T07:50:21;3.50;99.90
12870;DHT22;6503;48.572;13.460;2023-01-31T07:52:51;3.60;99.90
12870;DHT22;6503;48.572;13.460;2023-01-31T07:55:27;3.60;99.90
12870;DHT22;6503;48.572;13.460;2023-01-31T07:58:00;3.40;99.90
12870;DHT22;6503;48.572;13.460;2023-01-31T08:00:35;3.60;99.90
12870;DHT22;6503;48.572;13.460;2023-01-31T08:03:23;3.50;99.90
12870;DHT22;6503;48.572;13.460;2023-01-31T08:06:07;3.50;99.90
12870;DHT22;6503;48.572;13.460;2023-01-31T08:08:38;3.60;99.90
12870;DHT22;6503;48.572;13.460;2023-01-31T08:11:12;3.70;99.90
12870;DHT22;6503;48.572;13.460;2023-01-31T08:13:39;3.60;99.90
12870;DHT22;6503;48.572;13.460;2023-01-31T08:16:09;3.70;99.90
12870;DHT22;6503;48.572;13.460;2023-01-31T08:18:55;3.80;99.90
12870;DHT22;6503;48.572;13.460;2023-01-31T08:21:29;3.60;99.90
12870;DHT22;6503;48.572;13.460;2023-01-31T08:23:56;3.60;99.90
12870;DHT22;6503;48.572;13.460;2023-01-31T08:26:38;3.50;99.90
12870;DHT22;6503;48.572;13.460;2023-01-31T08:29:28;3.70;99.90
12870;DHT22;6503;48.572;13.460;2023-01-31T08:32:06;3.60;99.90
12870;DHT22;6503;48.572;13.460;2023-01-31T08:34:33;3.80;99.90
12870;DHT22;6503;48.572;13.460;2023-01-31T08:37:07;3.80;99.90
12870;DHT22;6503;48.572;13.460;2023-01-31T08:39:34;3.70;99.90
12870;DHT22;6503;48.572;13.460;2023-01-31T08:42:01;3.90;99.90
12870;DHT22;6503;48.572;13.460;2023-01-31T08:44:29;3.70;99.90
12870;DHT22;6503;48.572;13.460;2023-01-31T08:48:55;3.80;99.90
12870;DHT22;6503;48.572;13.460;2023-01-31T08:50:49;3.70;99.90
12870;DHT22;6503;48.572;13.460;2023-01-31T08:53:19;3.80;99.90
12870;DHT22;6503;48.572;13.460;2023-01-31T08:55:50;3.80;99.90
12870;DHT22;6503;48.572;13.460;2023-01-31T08:58:20;3.90;99.90
12870;DHT22;6503;48.572;13.460;2023-01-31T09:00:52;4.10;99.90
12870;DHT22;6503;48.572;13.460;2023-01-31T09:03:25;4.00;99.90
12870;DHT22;6503;48.572;13.460;2023-01-31T09:05:52;4.00;99.90
12870;DHT22;6503;48.572;13.460;2023-01-31T09:08:23;4.20;99.90
12870;DHT22;6503;48.572;13.460;2023-01-31T09:10:57;4.00;99.90
12870;DHT22;6503;48.572;13.460;2023-01-31T09:17:19;4.00;99.90
12870;DHT22;6503;48.572;13.460;2023-01-31T09:21:36;4.00;99.90
12870;DHT22;6503;48.572;13.460;2023-01-31T09:23:22;4.10;99.90
12870;DHT22;6503;48.572;13.460;2023-01-31T09:25:52;4.20;99.90
12870;DHT22;6503;48.572;13.460;2023-01-31T09:28:23;4.20;99.90
12870;DHT22;6503;48.572;13.460;2023-01-31T09:30:52;4.10;99.90
12870;DHT22;6503;48.572;13.460;2023-01-31T09:33:43;4.10;99.90
12870;DHT22;6503;48.572;13.460;2023-01-31T09:36:13;4.10;99.90
12870;DHT22;6503;48.572;13.460;2023-01-31T09:42:26;4.10;99.90
12870;DHT22;6503;48.572;13.460;2023-01-31T09:45:57;4.10;99.90
12870;DHT22;6503;48.572;13.460;2023-01-31T09:48:46;4.20;99.90
12870;DHT22;6503;48.572;13.460;2023-01-31T09:51:23;4.20;99.90
12870;DHT22;6503;48.572;13.460;2023-01-31T10:14:31;4.20;99.90
12870;DHT22;6503;48.572;13.460;2023-01-31T10:21:07;4.30;99.90
12870;DHT22;6503;48.572;13.460;2023-01-31T10:24:17;4.40;99.90
12870;DHT22;6503;48.572;13.460;2023-01-31T10:27:02;4.40;99.90
12870;DHT22;6503;48.572;13.460;2023-01-31T10:29:45;4.50;99.90
12870;DHT22;6503;48.572;13.460;2023-01-31T10:33:29;4.40;99.90
12870;DHT22;6503;48.572;13.460;2023-01-31T10:39:39;4.30;99.90
12870;DHT22;6503;48.572;13.460;2023-01-31T10:42:19;4.40;99.90
12870;DHT22;6503;48.572;13.460;2023-01-31T10:45:16;4.40;99.90
12870;DHT22;6503;48.572;13.460;2023-01-31T10:48:12;4.30;99.90
12870;DHT22;6503;48.572;13.460;2023-01-31T10:51:15;4.40;99.90
12870;DHT22;6503;48.572;13.460;2023-01-31T10:54:27;4.40;99.90
12870;DHT22;6503;48.572;13.460;2023-01-31T11:10:20;4.80;99.90
12870;DHT22;6503;48.572;13.460;2023-01-31T11:13:17;4.80;99.90
12870;DHT22;6503;48.572;13.460;2023-01-31T11:16:28;4.80;99.90
12870;DHT22;6503;48.572;13.460;2023-01-31T11:19:32;4.80;99.90
12870;DHT22;6503;48.572;13.460;2023-01-31T11:23:00;4.80;99.90
12870;DHT22;6503;48.572;13.460;2023-01-31T11:35:51;4.80;99.90
12870;DHT22;6503;48.572;13.460;2023-01-31T11:39:04;4.90;99.90
12870;DHT22;6503;48.572;13.460;2023-01-31T12:14:24;4.80;99.90
12870;DHT22;6503;48.572;13.460;2023-01-31T13:14:04;4.70;99.90
12870;DHT22;6503;48.572;13.460;2023-01-31T13:17:23;4.70;99.90
12870;DHT22;6503;48.572;13.460;2023-01-31T13:23:43;4.70;99.90
12870;DHT22;6503;48.572;13.460;2023-01-31T13:36:59;4.80;99.90
12870;DHT22;6503;48.572;13.460;2023-01-31T13:43:13;4.70;99.90
12870;DHT22;6503;48.572;13.460;2023-01-31T13:46:21;4.70;99.90
12870;DHT22;6503;48.572;13.460;2023-01-31T15:44:28;4.70;99.90
12870;DHT22;6503;48.572;13.460;2023-01-31T15:46:57;4.70;99.90
12870;DHT22;6503;48.572;13.460;2023-01-31T15:49:29;4.60;99.90
12870;DHT22;6503;48.572;13.460;2023-01-31T15:52:05;4.70;99.90
12870;DHT22;6503;48.572;13.460;2023-01-31T15:54:37;4.70;99.90
12870;DHT22;6503;48.572;13.460;2023-01-31T15:57:10;4.60;99.90
12870;DHT22;6503;48.572;13.460;2023-01-31T15:59:55;4.60;99.90
12870;DHT22;6503;48.572;13.460;2023-01-31T16:02:32;4.60;99.90
12870;DHT22;6503;48.572;13.460;2023-01-31T16:05:01;4.60;99.90
12870;DHT22;6503;48.572;13.460;2023-01-31T16:07:30;4.60;99.90
12870;DHT22;6503;48.572;13.460;2023-01-31T16:09:59;4.60;99.90
12870;DHT22;6503;48.572;13.460;2023-01-31T16:12:31;4.60;99.90
12870;DHT22;6503;48.572;13.460;2023-01-31T16:15:13;4.60;99.90
12870;DHT22;6503;48.572;13.460;2023-01-31T16:17:53;4.60;99.90
12870;DHT22;6503;48.572;13.460;2023-01-31T16:20:41;4.60;99.90
12870;DHT22;6503;48.572;13.460;2023-01-31T16:23:30;4.60;99.90
12870;DHT22;6503;48.572;13.460;2023-01-31T16:26:10;4.50;99.90
12870;DHT22;6503;48.572;13.460;2023-01-31T16:29:06;4.50;99.90
12870;DHT22;6503;48.572;13.460;2023-01-31T16:31:55;4.60;99.90
12870;DHT22;6503;48.572;13.460;2023-01-31T16:34:36;4.40;99.90
12870;DHT22;6503;48.572;13.460;2023-01-31T16:37:04;4.40;99.90
12870;DHT22;6503;48.572;13.460;2023-01-31T16:39:37;4.40;99.90
12870;DHT22;6503;48.572;13.460;2023-01-31T16:42:20;4.30;99.90
12870;DHT22;6503;48.572;13.460;2023-01-31T16:44:55;4.30;99.90
12870;DHT22;6503;48.572;13.460;2023-01-31T16:47:51;4.30;99.90
12870;DHT22;6503;48.572;13.460;2023-01-31T16:50:31;4.30;99.90
12870;DHT22;6503;48.572;13.460;2023-01-31T16:53:18;4.30;99.90
12870;DHT22;6503;48.572;13.460;2023-01-31T16:56:21;4.30;99.90
12870;DHT22;6503;48.572;13.460;2023-01-31T16:58:58;4.40;99.90
12870;DHT22;6503;48.572;13.460;2023-01-31T17:01:30;4.30;99.90
12870;DHT22;6503;48.572;13.460;2023-01-31T17:04:20;4.20;99.90
12870;DHT22;6503;48.572;13.460;2023-01-31T17:07:02;4.20;99.90
12870;DHT22;6503;48.572;13.460;2023-01-31T17:09:32;4.20;99.90
12870;DHT22;6503;48.572;13.460;2023-01-31T17:12:09;4.20;99.90
12870;DHT22;6503;48.572;13.460;2023-01-31T17:14:49;4.20;99.90
12870;DHT22;6503;48.572;13.460;2023-01-31T17:17:25;4.20;99.90
12870;DHT22;6503;48.572;13.460;2023-01-31T17:19:57;4.20;99.90
12870;DHT22;6503;48.572;13.460;2023-01-31T17:22:25;4.20;99.90
12870;DHT22;6503;48.572;13.460;2023-01-31T17:24:56;4.20;99.90
12870;DHT22;6503;48.572;13.460;2023-01-31T17:27:28;4.30;99.90
12870;DHT22;6503;48.572;13.460;2023-01-31T17:29:59;4.30;99.90
12870;DHT22;6503;48.572;13.460;2023-01-31T17:32:26;4.40;99.90
12870;DHT22;6503;48.572;13.460;2023-01-31T17:35:15;4.30;99.90
12870;DHT22;6503;48.572;13.460;2023-01-31T17:41:27;4.30;99.90
12870;DHT22;6503;48.572;13.460;2023-01-31T17:43:59;4.30;99.90
12870;DHT22;6503;48.572;13.460;2023-01-31T17:46:38;4.30;99.90
12870;DHT22;6503;48.572;13.460;2023-01-31T17:49:10;4.30;99.90
12870;DHT22;6503;48.572;13.460;2023-01-31T17:51:44;4.20;99.90
12870;DHT22;6503;48.572;13.460;2023-01-31T17:54:19;4.30;99.90
12870;DHT22;6503;48.572;13.460;2023-01-31T17:56:47;4.20;99.90
12870;DHT22;6503;48.572;13.460;2023-01-31T17:59:25;4.10;99.90
12870;DHT22;6503;48.572;13.460;2023-01-31T18:01:59;4.20;99.90
12870;DHT22;6503;48.572;13.460;2023-01-31T18:04:27;4.20;99.90
12870;DHT22;6503;48.572;13.460;2023-01-31T18:07:07;4.20;99.90
12870;DHT22;6503;48.572;13.460;2023-01-31T18:12:50;4.20;99.90
12870;DHT22;6503;48.572;13.460;2023-01-31T18:15:21;4.20;99.90
12870;DHT22;6503;48.572;13.460;2023-01-31T18:17:57;4.20;99.90
12870;DHT22;6503;48.572;13.460;2023-01-31T18:20:33;4.20;99.90
12870;DHT22;6503;48.572;13.460;2023-01-31T18:23:05;4.20;99.90
12870;DHT22;6503;48.572;13.460;2023-01-31T18:25:36;4.20;99.90
12870;DHT22;6503;48.572;13.460;2023-01-31T18:28:05;4.20;99.90
12870;DHT22;6503;48.572;13.460;2023-01-31T18:30:32;4.10;99.90
12870;DHT22;6503;48.572;13.460;2023-01-31T18:32:59;4.20;99.90
12870;DHT22;6503;48.572;13.460;2023-01-31T18:35:26;4.00;99.90
12870;DHT22;6503;48.572;13.460;2023-01-31T18:37:53;4.00;99.90
12870;DHT22;6503;48.572;13.460;2023-01-31T18:40:25;4.00;99.90
12870;DHT22;6503;48.572;13.460;2023-01-31T18:43:28;4.00;99.90
12870;DHT22;6503;48.572;13.460;2023-01-31T18:46:28;4.00;99.90
12870;DHT22;6503;48.572;13.460;2023-01-31T18:48:56;4.00;99.90
12870;DHT22;6503;48.572;13.460;2023-01-31T18:51:24;4.00;99.90
12870;DHT22;6503;48.572;13.460;2023-01-31T18:53:53;4.00;99.90
12870;DHT22;6503;48.572;13.460;2023-01-31T18:56:48;3.90;99.90
12870;DHT22;6503;48.572;13.460;2023-01-31T18:59:15;3.90;99.90
12870;DHT22;6503;48.572;13.460;2023-01-31T19:01:45;3.80;99.90
12870;DHT22;6503;48.572;13.460;2023-01-31T19:04:13;3.90;99.90
12870;DHT22;6503;48.572;13.460;2023-01-31T19:06:40;3.90;99.90
12870;DHT22;6503;48.572;13.460;2023-01-31T19:09:09;3.90;99.90
12870;DHT22;6503;48.572;13.460;2023-01-31T19:11:36;3.90;99.90
12870;DHT22;6503;48.572;13.460;2023-01-31T19:14:09;3.80;99.90
12870;DHT22;6503;48.572;13.460;2023-01-31T19:16:39;3.70;99.90
12870;DHT22;6503;48.572;13.460;2023-01-31T19:19:08;3.70;99.90
12870;DHT22;6503;48.572;13.460;2023-01-31T19:21:37;3.70;99.90
12870;DHT22;6503;48.572;13.460;2023-01-31T19:24:08;3.70;99.90
12870;DHT22;6503;48.572;13.460;2023-01-31T19:26:37;3.60;99.90
12870;DHT22;6503;48.572;13.460;2023-01-31T19:29:06;3.60;99.90
12870;DHT22;6503;48.572;13.460;2023-01-31T19:31:35;3.50;99.90
12870;DHT22;6503;48.572;13.460;2023-01-31T19:34:04;3.40;99.90
12870;DHT22;6503;48.572;13.460;2023-01-31T19:36:33;3.30;99.90
12870;DHT22;6503;48.572;13.460;2023-01-31T19:39:02;3.20;99.90
12870;DHT22;6503;48.572;13.460;2023-01-31T19:41:31;3.10;99.90
12870;DHT22;6503;48.572;13.460;2023-01-31T19:44:00;3.10;99.90
12870;DHT22;6503;48.572;13.460;2023-01-31T19:46:37;3.10;99.90
12870;DHT22;6503;48.572;13.460;2023-01-31T19:49:04;3.10;99.90
12870;DHT22;6503;48.572;13.460;2023-01-31T19:51:39;3.00;99.90
12870;DHT22;6503;48.572;13.460;2023-01-31T19:54:12;2.90;99.90
12870;DHT22;6503;48.572;13.460;2023-01-31T19:56:40;2.90;99.90
12870;DHT22;6503;48.572;13.460;2023-01-31T19:59:10;2.90;99.90
12870;DHT22;6503;48.572;13.460;2023-01-31T20:01:40;2.90;99.90
12870;DHT22;6503;48.572;13.460;2023-01-31T20:04:09;2.90;99.90
12870;DHT22;6503;48.572;13.460;2023-01-31T20:06:43;2.90;99.90
12870;DHT22;6503;48.572;13.460;2023-01-31T20:09:12;2.90;99.90
12870;DHT22;6503;48.572;13.460;2023-01-31T20:11:45;2.90;99.90
12870;DHT22;6503;48.572;13.460;2023-01-31T20:14:18;2.90;99.90
12870;DHT22;6503;48.572;13.460;2023-01-31T20:16:51;2.80;99.90
12870;DHT22;6503;48.572;13.460;2023-01-31T20:19:20;2.70;99.90
12870;DHT22;6503;48.572;13.460;2023-01-31T20:21:48;2.80;99.90
12870;DHT22;6503;48.572;13.460;2023-01-31T20:24:15;2.80;99.90
12870;DHT22;6503;48.572;13.460;2023-01-31T20:26:44;2.80;99.90
12870;DHT22;6503;48.572;13.460;2023-01-31T20:29:13;2.80;99.90
12870;DHT22;6503;48.572;13.460;2023-01-31T20:31:41;2.80;99.90
12870;DHT22;6503;48.572;13.460;2023-01-31T20:34:14;2.90;99.90
12870;DHT22;6503;48.572;13.460;2023-01-31T20:36:46;2.80;99.90
12870;DHT22;6503;48.572;13.460;2023-01-31T20:39:18;2.80;99.90
12870;DHT22;6503;48.572;13.460;2023-01-31T20:42:00;2.80;99.90
12870;DHT22;6503;48.572;13.460;2023-01-31T20:44:38;2.80;99.90
12870;DHT22;6503;48.572;13.460;2023-01-31T20:47:28;2.80;99.90
12870;DHT22;6503;48.572;13.460;2023-01-31T20:50:16;2.80;99.90
12870;DHT22;6503;48.572;13.460;2023-01-31T20:53:00;2.80;99.90
12870;DHT22;6503;48.572;13.460;2023-01-31T20:55:41;2.80;99.90
12870;DHT22;6503;48.572;13.460;2023-01-31T20:58:09;2.90;99.90
12870;DHT22;6503;48.572;13.460;2023-01-31T21:00:51;2.80;99.90
12870;DHT22;6503;48.572;13.460;2023-01-31T21:03:27;2.80;99.90
12870;DHT22;6503;48.572;13.460;2023-01-31T21:06:24;2.80;99.90
12870;DHT22;6503;48.572;13.460;2023-01-31T21:09:08;2.80;99.90
12870;DHT22;6503;48.572;13.460;2023-01-31T21:11:41;2.80;99.90
12870;DHT22;6503;48.572;13.460;2023-01-31T21:14:30;2.80;99.90
12870;DHT22;6503;48.572;13.460;2023-01-31T21:17:03;2.80;99.90
12870;DHT22;6503;48.572;13.460;2023-01-31T21:19:43;2.80;99.90
12870;DHT22;6503;48.572;13.460;2023-01-31T21:22:30;2.80;99.90
12870;DHT22;6503;48.572;13.460;2023-01-31T21:24:59;2.80;99.90
12870;DHT22;6503;48.572;13.460;2023-01-31T21:27:47;2.80;99.90
12870;DHT22;6503;48.572;13.460;2023-01-31T21:30:16;2.80;99.90
12870;DHT22;6503;48.572;13.460;2023-01-31T21:32:53;2.90;99.90
12870;DHT22;6503;48.572;13.460;2023-01-31T21:35:25;2.80;99.90
12870;DHT22;6503;48.572;13.460;2023-01-31T21:37:58;2.90;99.90
12870;DHT22;6503;48.572;13.460;2023-01-31T21:40:25;2.90;99.90
12870;DHT22;6503;48.572;13.460;2023-01-31T21:42:56;2.80;99.90
12870;DHT22;6503;48.572;13.460;2023-01-31T21:45:23;2.90;99.90
12870;DHT22;6503;48.572;13.460;2023-01-31T21:48:04;3.00;99.90
12870;DHT22;6503;48.572;13.460;2023-01-31T21:50:49;3.00;99.90
12870;DHT22;6503;48.572;13.460;2023-01-31T21:53:36;3.00;99.90
12870;DHT22;6503;48.572;13.460;2023-01-31T21:56:14;3.00;99.90